Berner, Minnesota
Current Conditions -  °F | °C
As of 9:15 PM on Wednesday 22 Oct 2014 (Local Time) from KFSE Reporting Station
Light Rain Light Rain  
Wind Chill: 52°   Ceiling: 1300
Heat Index: 52°   Visibility: 4mi
Dew Point: 52°   Wind: 10mph
Humidity: 100%   Direction: 180°S
Pressure: 29.9"   Gusts: NA
Location:  47.8469°N, 95.4815°W
Report Text: KFSE 230215Z AUTO 18009KT 4SM -RA BKN013 BKN020 OVC027 11/11 A2990 RMK AO2 P0004
Loading
Personal Weather Stations






























Interactive Weather Map
Tropical Storm Tracking
New forecast layout! Learn more

10-Day Weather Forecast

Advertisements
Track Severe Weather on mobile